sensor_id;sensor_type;location;lat;lon;timestamp;P1;durP1;ratioP1;P2;durP2;ratioP2
21657;SDS011;10990;48.174;9.782;2023-05-16T00:00:39;2.10;;;1.73;;
21657;SDS011;10990;48.174;9.782;2023-05-16T00:03:06;2.20;;;1.70;;
21657;SDS011;10990;48.174;9.782;2023-05-16T00:05:37;1.90;;;1.50;;
21657;SDS011;10990;48.174;9.782;2023-05-16T00:08:04;1.70;;;1.60;;
21657;SDS011;10990;48.174;9.782;2023-05-16T00:10:31;6.90;;;1.60;;
21657;SDS011;10990;48.174;9.782;2023-05-16T00:12:57;1.80;;;1.50;;
21657;SDS011;10990;48.174;9.782;2023-05-16T00:15:26;2.77;;;1.70;;
21657;SDS011;10990;48.174;9.782;2023-05-16T00:17:53;2.10;;;1.90;;
21657;SDS011;10990;48.174;9.782;2023-05-16T00:20:22;2.20;;;2.00;;
21657;SDS011;10990;48.174;9.782;2023-05-16T00:22:51;6.47;;;2.10;;
21657;SDS011;10990;48.174;9.782;2023-05-16T00:25:17;2.10;;;1.90;;
21657;SDS011;10990;48.174;9.782;2023-05-16T00:27:44;2.17;;;1.97;;
21657;SDS011;10990;48.174;9.782;2023-05-16T00:30:12;2.20;;;2.03;;
21657;SDS011;10990;48.174;9.782;2023-05-16T00:32:39;2.47;;;2.23;;
21657;SDS011;10990;48.174;9.782;2023-05-16T00:35:06;2.70;;;2.50;;
21657;SDS011;10990;48.174;9.782;2023-05-16T00:37:34;4.13;;;2.47;;
21657;SDS011;10990;48.174;9.782;2023-05-16T00:40:04;4.83;;;2.50;;
21657;SDS011;10990;48.174;9.782;2023-05-16T00:42:31;4.20;;;2.40;;
21657;SDS011;10990;48.174;9.782;2023-05-16T00:44:58;2.50;;;2.30;;
21657;SDS011;10990;48.174;9.782;2023-05-16T00:47:27;4.03;;;2.30;;
21657;SDS011;10990;48.174;9.782;2023-05-16T00:49:53;2.73;;;2.10;;
21657;SDS011;10990;48.174;9.782;2023-05-16T00:52:20;2.80;;;2.20;;
21657;SDS011;10990;48.174;9.782;2023-05-16T00:54:47;2.70;;;2.50;;
21657;SDS011;10990;48.174;9.782;2023-05-16T00:57:17;3.67;;;2.33;;
21657;SDS011;10990;48.174;9.782;2023-05-16T00:59:44;2.13;;;1.93;;
21657;SDS011;10990;48.174;9.782;2023-05-16T01:02:11;2.17;;;1.97;;
21657;SDS011;10990;48.174;9.782;2023-05-16T01:04:38;2.47;;;2.27;;
21657;SDS011;10990;48.174;9.782;2023-05-16T01:07:05;2.53;;;2.33;;
21657;SDS011;10990;48.174;9.782;2023-05-16T01:09:33;2.37;;;2.17;;
21657;SDS011;10990;48.174;9.782;2023-05-16T01:12:05;3.23;;;2.43;;
21657;SDS011;10990;48.174;9.782;2023-05-16T01:14:40;4.10;;;2.57;;
21657;SDS011;10990;48.174;9.782;2023-05-16T01:17:18;2.40;;;2.20;;
21657;SDS011;10990;48.174;9.782;2023-05-16T01:19:52;2.43;;;2.23;;
21657;SDS011;10990;48.174;9.782;2023-05-16T01:22:35;2.60;;;2.40;;
21657;SDS011;10990;48.174;9.782;2023-05-16T01:25:18;2.57;;;2.10;;
21657;SDS011;10990;48.174;9.782;2023-05-16T01:27:53;2.97;;;2.10;;
21657;SDS011;10990;48.174;9.782;2023-05-16T01:30:22;3.03;;;2.37;;
21657;SDS011;10990;48.174;9.782;2023-05-16T01:32:49;2.20;;;2.00;;
21657;SDS011;10990;48.174;9.782;2023-05-16T01:35:16;2.53;;;2.20;;
21657;SDS011;10990;48.174;9.782;2023-05-16T01:37:44;3.57;;;2.67;;
21657;SDS011;10990;48.174;9.782;2023-05-16T01:40:19;3.13;;;2.57;;
21657;SDS011;10990;48.174;9.782;2023-05-16T01:42:54;3.37;;;2.20;;
21657;SDS011;10990;48.174;9.782;2023-05-16T01:45:25;3.97;;;2.77;;
21657;SDS011;10990;48.174;9.782;2023-05-16T01:47:57;3.33;;;2.77;;
21657;SDS011;10990;48.174;9.782;2023-05-16T01:50:31;3.23;;;2.50;;
21657;SDS011;10990;48.174;9.782;2023-05-16T01:53:02;4.57;;;2.90;;
21657;SDS011;10990;48.174;9.782;2023-05-16T01:55:41;3.47;;;3.10;;
21657;SDS011;10990;48.174;9.782;2023-05-16T01:58:12;4.13;;;3.27;;
21657;SDS011;10990;48.174;9.782;2023-05-16T02:00:40;3.63;;;3.20;;
21657;SDS011;10990;48.174;9.782;2023-05-16T02:03:08;3.70;;;3.20;;
21657;SDS011;10990;48.174;9.782;2023-05-16T02:05:36;3.90;;;3.00;;
21657;SDS011;10990;48.174;9.782;2023-05-16T02:08:03;4.03;;;3.10;;
21657;SDS011;10990;48.174;9.782;2023-05-16T02:10:31;3.87;;;3.40;;
21657;SDS011;10990;48.174;9.782;2023-05-16T02:12:58;4.07;;;3.30;;
21657;SDS011;10990;48.174;9.782;2023-05-16T02:15:26;4.57;;;3.00;;
21657;SDS011;10990;48.174;9.782;2023-05-16T02:17:53;4.40;;;3.13;;
21657;SDS011;10990;48.174;9.782;2023-05-16T02:20:20;3.80;;;3.10;;
21657;SDS011;10990;48.174;9.782;2023-05-16T02:22:46;4.17;;;3.63;;
21657;SDS011;10990;48.174;9.782;2023-05-16T02:25:14;4.23;;;3.40;;
21657;SDS011;10990;48.174;9.782;2023-05-16T02:27:41;4.03;;;3.40;;
21657;SDS011;10990;48.174;9.782;2023-05-16T02:30:09;6.90;;;4.30;;
21657;SDS011;10990;48.174;9.782;2023-05-16T02:32:38;6.10;;;4.30;;
21657;SDS011;10990;48.174;9.782;2023-05-16T02:35:06;6.67;;;4.10;;
21657;SDS011;10990;48.174;9.782;2023-05-16T02:37:33;6.90;;;4.07;;
21657;SDS011;10990;48.174;9.782;2023-05-16T02:40:00;6.00;;;4.37;;
21657;SDS011;10990;48.174;9.782;2023-05-16T02:42:28;6.03;;;4.73;;
21657;SDS011;10990;48.174;9.782;2023-05-16T02:44:56;5.63;;;4.43;;
21657;SDS011;10990;48.174;9.782;2023-05-16T02:47:23;6.97;;;5.30;;
21657;SDS011;10990;48.174;9.782;2023-05-16T02:49:51;6.10;;;4.90;;
21657;SDS011;10990;48.174;9.782;2023-05-16T02:52:18;6.23;;;4.27;;
21657;SDS011;10990;48.174;9.782;2023-05-16T02:54:45;6.37;;;4.23;;
21657;SDS011;10990;48.174;9.782;2023-05-16T02:57:12;6.57;;;4.33;;
21657;SDS011;10990;48.174;9.782;2023-05-16T02:59:39;6.00;;;4.63;;
21657;SDS011;10990;48.174;9.782;2023-05-16T03:02:06;8.40;;;5.63;;
21657;SDS011;10990;48.174;9.782;2023-05-16T03:04:33;6.50;;;4.60;;
21657;SDS011;10990;48.174;9.782;2023-05-16T03:07:01;6.73;;;4.60;;
21657;SDS011;10990;48.174;9.782;2023-05-16T03:09:28;6.53;;;5.13;;
21657;SDS011;10990;48.174;9.782;2023-05-16T03:11:55;6.60;;;5.33;;
21657;SDS011;10990;48.174;9.782;2023-05-16T03:14:23;6.33;;;4.87;;
21657;SDS011;10990;48.174;9.782;2023-05-16T03:16:49;7.10;;;5.30;;
21657;SDS011;10990;48.174;9.782;2023-05-16T03:19:17;6.40;;;5.07;;
21657;SDS011;10990;48.174;9.782;2023-05-16T03:21:44;6.77;;;4.80;;
21657;SDS011;10990;48.174;9.782;2023-05-16T03:24:13;6.90;;;5.10;;
21657;SDS011;10990;48.174;9.782;2023-05-16T03:26:42;7.03;;;5.20;;
21657;SDS011;10990;48.174;9.782;2023-05-16T03:29:09;7.43;;;5.43;;
21657;SDS011;10990;48.174;9.782;2023-05-16T03:31:36;7.40;;;5.60;;
21657;SDS011;10990;48.174;9.782;2023-05-16T03:34:02;7.00;;;5.37;;
21657;SDS011;10990;48.174;9.782;2023-05-16T03:36:29;7.03;;;5.70;;
21657;SDS011;10990;48.174;9.782;2023-05-16T03:38:56;8.43;;;5.80;;
21657;SDS011;10990;48.174;9.782;2023-05-16T03:41:24;9.13;;;5.53;;
21657;SDS011;10990;48.174;9.782;2023-05-16T03:43:51;7.27;;;5.80;;
21657;SDS011;10990;48.174;9.782;2023-05-16T03:46:18;8.43;;;6.17;;
21657;SDS011;10990;48.174;9.782;2023-05-16T03:48:45;9.67;;;6.67;;
21657;SDS011;10990;48.174;9.782;2023-05-16T03:51:12;8.57;;;6.20;;
21657;SDS011;10990;48.174;9.782;2023-05-16T03:53:38;8.73;;;6.30;;
21657;SDS011;10990;48.174;9.782;2023-05-16T03:56:05;8.97;;;6.40;;
21657;SDS011;10990;48.174;9.782;2023-05-16T03:58:33;10.93;;;6.93;;
21657;SDS011;10990;48.174;9.782;2023-05-16T04:01:00;8.67;;;6.23;;
21657;SDS011;10990;48.174;9.782;2023-05-16T04:03:27;12.57;;;7.13;;
21657;SDS011;10990;48.174;9.782;2023-05-16T04:05:54;9.53;;;6.97;;
21657;SDS011;10990;48.174;9.782;2023-05-16T04:08:21;9.37;;;6.93;;
